sensor_id;sensor_type;location;lat;lon;timestamp;pressure;altitude;pressure_sealevel;temperature;humidity
63715;BME280;49858;48.956;9.076;2023-06-10T00:00:48;98364.56;;;22.80;100.00
63715;BME280;49858;48.956;9.076;2023-06-10T00:03:17;98358.09;;;23.08;100.00
63715;BME280;49858;48.956;9.076;2023-06-10T00:05:46;98357.41;;;23.17;100.00
63715;BME280;49858;48.956;9.076;2023-06-10T00:08:14;98346.50;;;23.19;100.00
63715;BME280;49858;48.956;9.076;2023-06-10T00:10:45;98357.63;;;23.23;100.00
63715;BME280;49858;48.956;9.076;2023-06-10T00:13:13;98348.44;;;23.22;100.00
63715;BME280;49858;48.956;9.076;2023-06-10T00:15:42;98350.91;;;23.20;100.00
63715;BME280;49858;48.956;9.076;2023-06-10T00:18:10;98351.03;;;23.16;100.00
63715;BME280;49858;48.956;9.076;2023-06-10T00:20:38;98351.47;;;23.15;99.79
63715;BME280;49858;48.956;9.076;2023-06-10T00:23:07;98353.50;;;23.02;100.00
63715;BME280;49858;48.956;9.076;2023-06-10T00:25:34;98356.72;;;23.00;99.85
63715;BME280;49858;48.956;9.076;2023-06-10T00:28:02;98353.94;;;23.00;98.39
63715;BME280;49858;48.956;9.076;2023-06-10T00:30:30;98354.38;;;22.99;98.26
63715;BME280;49858;48.956;9.076;2023-06-10T00:32:57;98352.59;;;22.92;100.00
63715;BME280;49858;48.956;9.076;2023-06-10T00:35:26;98353.22;;;22.70;100.00
63715;BME280;49858;48.956;9.076;2023-06-10T00:37:54;98351.28;;;21.97;100.00
63715;BME280;49858;48.956;9.076;2023-06-10T00:40:23;98353.88;;;20.13;100.00
63715;BME280;49858;48.956;9.076;2023-06-10T00:42:50;98349.47;;;19.26;100.00
63715;BME280;49858;48.956;9.076;2023-06-10T00:45:20;98351.22;;;18.89;100.00
63715;BME280;49858;48.956;9.076;2023-06-10T00:47:48;98358.69;;;18.69;100.00
63715;BME280;49858;48.956;9.076;2023-06-10T00:50:16;98354.72;;;18.62;100.00
63715;BME280;49858;48.956;9.076;2023-06-10T00:52:44;98354.06;;;18.55;100.00
63715;BME280;49858;48.956;9.076;2023-06-10T00:55:15;98359.91;;;19.45;100.00
63715;BME280;49858;48.956;9.076;2023-06-10T00:57:45;98357.09;;;19.92;100.00
63715;BME280;49858;48.956;9.076;2023-06-10T01:00:15;98359.72;;;20.42;100.00
63715;BME280;49858;48.956;9.076;2023-06-10T01:02:42;98361.25;;;20.83;100.00
63715;BME280;49858;48.956;9.076;2023-06-10T01:05:10;98356.75;;;21.06;100.00
63715;BME280;49858;48.956;9.076;2023-06-10T01:07:39;98361.69;;;20.98;100.00
63715;BME280;49858;48.956;9.076;2023-06-10T01:10:15;98363.31;;;20.99;100.00
63715;BME280;49858;48.956;9.076;2023-06-10T01:12:45;98361.13;;;20.71;100.00
63715;BME280;49858;48.956;9.076;2023-06-10T01:15:16;98364.66;;;20.55;100.00
63715;BME280;49858;48.956;9.076;2023-06-10T01:17:55;98355.09;;;20.12;100.00
63715;BME280;49858;48.956;9.076;2023-06-10T01:20:24;98357.84;;;20.56;100.00
63715;BME280;49858;48.956;9.076;2023-06-10T01:22:54;98350.75;;;20.51;100.00
63715;BME280;49858;48.956;9.076;2023-06-10T01:25:24;98358.63;;;20.36;100.00
63715;BME280;49858;48.956;9.076;2023-06-10T01:27:56;98351.53;;;20.72;100.00
63715;BME280;49858;48.956;9.076;2023-06-10T01:30:27;98358.34;;;20.71;100.00
63715;BME280;49858;48.956;9.076;2023-06-10T01:32:57;98350.78;;;20.87;100.00
63715;BME280;49858;48.956;9.076;2023-06-10T01:35:25;98352.38;;;21.21;100.00
63715;BME280;49858;48.956;9.076;2023-06-10T01:37:54;98355.53;;;21.23;100.00
63715;BME280;49858;48.956;9.076;2023-06-10T01:40:25;98359.59;;;21.38;100.00
63715;BME280;49858;48.956;9.076;2023-06-10T01:42:53;98357.38;;;21.30;100.00
63715;BME280;49858;48.956;9.076;2023-06-10T01:45:20;98356.88;;;21.35;100.00
63715;BME280;49858;48.956;9.076;2023-06-10T01:47:48;98363.16;;;21.39;100.00
63715;BME280;49858;48.956;9.076;2023-06-10T01:50:16;98353.38;;;21.47;100.00
63715;BME280;49858;48.956;9.076;2023-06-10T01:52:43;98358.19;;;21.47;100.00
63715;BME280;49858;48.956;9.076;2023-06-10T01:55:12;98354.41;;;21.53;100.00
63715;BME280;49858;48.956;9.076;2023-06-10T01:57:40;98364.66;;;21.43;100.00
63715;BME280;49858;48.956;9.076;2023-06-10T02:00:08;98357.03;;;21.44;100.00
63715;BME280;49858;48.956;9.076;2023-06-10T02:02:43;98368.22;;;21.28;100.00
63715;BME280;49858;48.956;9.076;2023-06-10T02:05:11;98362.13;;;21.49;100.00
63715;BME280;49858;48.956;9.076;2023-06-10T02:07:41;98360.63;;;21.61;100.00
63715;BME280;49858;48.956;9.076;2023-06-10T02:10:09;98370.56;;;21.29;100.00
63715;BME280;49858;48.956;9.076;2023-06-10T02:12:41;98360.69;;;21.25;100.00
63715;BME280;49858;48.956;9.076;2023-06-10T02:15:09;98365.66;;;21.17;100.00
63715;BME280;49858;48.956;9.076;2023-06-10T02:17:37;98373.25;;;21.16;100.00
63715;BME280;49858;48.956;9.076;2023-06-10T02:20:05;98373.44;;;20.73;100.00
63715;BME280;49858;48.956;9.076;2023-06-10T02:22:34;98372.53;;;20.80;100.00
63715;BME280;49858;48.956;9.076;2023-06-10T02:25:02;98377.59;;;20.85;100.00
63715;BME280;49858;48.956;9.076;2023-06-10T02:27:30;98377.72;;;20.61;100.00
63715;BME280;49858;48.956;9.076;2023-06-10T02:30:00;98377.91;;;20.31;100.00
63715;BME280;49858;48.956;9.076;2023-06-10T02:32:30;98378.13;;;19.77;100.00
63715;BME280;49858;48.956;9.076;2023-06-10T02:34:58;98375.44;;;19.19;100.00
63715;BME280;49858;48.956;9.076;2023-06-10T02:37:27;98378.72;;;19.64;100.00
63715;BME280;49858;48.956;9.076;2023-06-10T02:39:55;98383.81;;;19.93;100.00
63715;BME280;49858;48.956;9.076;2023-06-10T02:42:23;98375.94;;;20.08;100.00
63715;BME280;49858;48.956;9.076;2023-06-10T02:44:51;98382.22;;;19.92;100.00
63715;BME280;49858;48.956;9.076;2023-06-10T02:47:30;98384.88;;;19.99;100.00
63715;BME280;49858;48.956;9.076;2023-06-10T02:49:58;98392.28;;;20.09;100.00
63715;BME280;49858;48.956;9.076;2023-06-10T02:52:28;98395.56;;;19.57;100.00
63715;BME280;49858;48.956;9.076;2023-06-10T02:54:56;98393.34;;;19.96;100.00
63715;BME280;49858;48.956;9.076;2023-06-10T02:57:24;98389.78;;;20.15;100.00
63715;BME280;49858;48.956;9.076;2023-06-10T02:59:52;98390.41;;;20.23;100.00
63715;BME280;49858;48.956;9.076;2023-06-10T03:02:21;98392.66;;;20.31;100.00
63715;BME280;49858;48.956;9.076;2023-06-10T03:04:56;98391.78;;;20.34;100.00
63715;BME280;49858;48.956;9.076;2023-06-10T03:07:24;98396.81;;;20.23;100.00
63715;BME280;49858;48.956;9.076;2023-06-10T03:09:53;98396.59;;;20.34;100.00
63715;BME280;49858;48.956;9.076;2023-06-10T03:12:20;98393.66;;;20.41;100.00
63715;BME280;49858;48.956;9.076;2023-06-10T03:14:48;98398.69;;;20.50;100.00
63715;BME280;49858;48.956;9.076;2023-06-10T03:17:16;98396.94;;;20.36;100.00
63715;BME280;49858;48.956;9.076;2023-06-10T03:19:45;98400.03;;;20.41;100.00
63715;BME280;49858;48.956;9.076;2023-06-10T03:22:14;98396.44;;;20.21;100.00
63715;BME280;49858;48.956;9.076;2023-06-10T03:24:52;98398.50;;;20.17;100.00
63715;BME280;49858;48.956;9.076;2023-06-10T03:27:22;98397.41;;;20.54;100.00
63715;BME280;49858;48.956;9.076;2023-06-10T03:29:53;98405.66;;;20.61;100.00
63715;BME280;49858;48.956;9.076;2023-06-10T03:32:21;98408.78;;;20.63;100.00
63715;BME280;49858;48.956;9.076;2023-06-10T03:34:49;98413.66;;;20.59;100.00
63715;BME280;49858;48.956;9.076;2023-06-10T03:37:19;98409.47;;;20.28;100.00
63715;BME280;49858;48.956;9.076;2023-06-10T03:39:48;98415.66;;;20.39;100.00
63715;BME280;49858;48.956;9.076;2023-06-10T03:42:16;98414.69;;;20.49;100.00
63715;BME280;49858;48.956;9.076;2023-06-10T03:44:43;98418.53;;;20.55;100.00
63715;BME280;49858;48.956;9.076;2023-06-10T03:47:11;98415.94;;;20.25;100.00
63715;BME280;49858;48.956;9.076;2023-06-10T03:49:40;98418.94;;;20.34;100.00
63715;BME280;49858;48.956;9.076;2023-06-10T03:52:09;98416.94;;;19.91;100.00
63715;BME280;49858;48.956;9.076;2023-06-10T03:54:38;98420.94;;;19.90;100.00
63715;BME280;49858;48.956;9.076;2023-06-10T03:57:06;98413.69;;;20.16;100.00
63715;BME280;49858;48.956;9.076;2023-06-10T03:59:33;98424.66;;;20.27;100.00
63715;BME280;49858;48.956;9.076;2023-06-10T04:02:01;98418.66;;;20.28;100.00
63715;BME280;49858;48.956;9.076;2023-06-10T04:04:32;98424.47;;;20.37;100.00
63715;BME280;49858;48.956;9.076;2023-06-10T04:06:59;98418.00;;;20.40;100.00
63715;BME280;49858;48.956;9.076;2023-06-10T04:09:28;98420.50;;;20.35;100.00
63715;BME280;49858;48.956;9.076;2023-06-10T04:11:57;98412.84;;;20.39;100.00
63715;BME280;49858;48.956;9.076;2023-06-10T04:14:25;98413.69;;;20.36;100.00
63715;BME280;49858;48.956;9.076;2023-06-10T04:16:53;98411.34;;;20.34;100.00
63715;BME280;49858;48.956;9.076;2023-06-10T04:19:20;98415.25;;;20.17;100.00
63715;BME280;49858;48.956;9.076;2023-06-10T04:21:49;98409.66;;;19.74;100.00
63715;BME280;49858;48.956;9.076;2023-06-10T04:24:19;98417.44;;;19.86;100.00
63715;BME280;49858;48.956;9.076;2023-06-10T04:26:47;98423.28;;;20.15;100.00
63715;BME280;49858;48.956;9.076;2023-06-10T04:29:17;98421.38;;;19.65;100.00
63715;BME280;49858;48.956;9.076;2023-06-10T04:31:44;98427.75;;;19.38;100.00
63715;BME280;49858;48.956;9.076;2023-06-10T04:34:13;98421.00;;;19.36;100.00
63715;BME280;49858;48.956;9.076;2023-06-10T04:36:41;98424.41;;;19.47;100.00
63715;BME280;49858;48.956;9.076;2023-06-10T04:39:09;98431.41;;;19.59;100.00
63715;BME280;49858;48.956;9.076;2023-06-10T04:41:37;98436.06;;;19.15;100.00
63715;BME280;49858;48.956;9.076;2023-06-10T04:44:05;98437.66;;;19.16;100.00
63715;BME280;49858;48.956;9.076;2023-06-10T04:46:34;98443.72;;;18.77;100.00
63715;BME280;49858;48.956;9.076;2023-06-10T04:49:02;98438.28;;;18.32;100.00
63715;BME280;49858;48.956;9.076;2023-06-10T04:51:31;98441.22;;;18.18;100.00
63715;BME280;49858;48.956;9.076;2023-06-10T04:53:59;98447.44;;;18.63;100.00
63715;BME280;49858;48.956;9.076;2023-06-10T04:56:29;98445.41;;;19.28;100.00
63715;BME280;49858;48.956;9.076;2023-06-10T04:58:57;98448.53;;;19.34;100.00
63715;BME280;49858;48.956;9.076;2023-06-10T05:01:24;98437.53;;;18.96;100.00
63715;BME280;49858;48.956;9.076;2023-06-10T05:03:53;98446.53;;;19.07;100.00
63715;BME280;49858;48.956;9.076;2023-06-10T05:06:21;98441.63;;;19.69;100.00
63715;BME280;49858;48.956;9.076;2023-06-10T05:08:49;98451.88;;;19.76;100.00
63715;BME280;49858;48.956;9.076;2023-06-10T05:11:16;98451.81;;;20.26;100.00
63715;BME280;49858;48.956;9.076;2023-06-10T05:13:44;98452.53;;;20.30;100.00
63715;BME280;49858;48.956;9.076;2023-06-10T05:16:12;98450.16;;;20.52;100.00
63715;BME280;49858;48.956;9.076;2023-06-10T05:18:41;98456.31;;;20.63;100.00
63715;BME280;49858;48.956;9.076;2023-06-10T05:21:10;98447.84;;;20.67;100.00
63715;BME280;49858;48.956;9.076;2023-06-10T05:23:38;98450.00;;;20.59;100.00
63715;BME280;49858;48.956;9.076;2023-06-10T05:26:05;98459.09;;;21.03;100.00
63715;BME280;49858;48.956;9.076;2023-06-10T05:28:33;98464.75;;;21.36;100.00
63715;BME280;49858;48.956;9.076;2023-06-10T05:31:01;98463.56;;;21.37;100.00
63715;BME280;49858;48.956;9.076;2023-06-10T05:33:29;98457.72;;;21.48;100.00
63715;BME280;49858;48.956;9.076;2023-06-10T05:35:56;98459.28;;;21.32;100.00
63715;BME280;49858;48.956;9.076;2023-06-10T05:38:25;98468.81;;;21.67;100.00
63715;BME280;49858;48.956;9.076;2023-06-10T05:40:53;98466.22;;;21.93;100.00
63715;BME280;49858;48.956;9.076;2023-06-10T05:43:23;98468.13;;;21.47;100.00
63715;BME280;49858;48.956;9.076;2023-06-10T05:45:50;98466.91;;;21.28;100.00
63715;BME280;49858;48.956;9.076;2023-06-10T05:48:18;98467.41;;;20.87;100.00
63715;BME280;49858;48.956;9.076;2023-06-10T05:50:47;98476.16;;;20.89;100.00
63715;BME280;49858;48.956;9.076;2023-06-10T05:53:15;98467.94;;;21.54;100.00
63715;BME280;49858;48.956;9.076;2023-06-10T05:55:44;98475.50;;;21.01;100.00
63715;BME280;49858;48.956;9.076;2023-06-10T05:58:13;98476.63;;;21.60;100.00
63715;BME280;49858;48.956;9.076;2023-06-10T06:00:41;98478.78;;;22.01;100.00
63715;BME280;49858;48.956;9.076;2023-06-10T06:03:09;98486.06;;;21.82;100.00
63715;BME280;49858;48.956;9.076;2023-06-10T06:05:37;98475.31;;;21.81;100.00
63715;BME280;49858;48.956;9.076;2023-06-10T06:08:05;98483.09;;;21.73;100.00
63715;BME280;49858;48.956;9.076;2023-06-10T06:10:32;98479.88;;;21.75;100.00
63715;BME280;49858;48.956;9.076;2023-06-10T06:13:02;98480.22;;;21.60;100.00
63715;BME280;49858;48.956;9.076;2023-06-10T06:15:29;98481.09;;;21.90;100.00
63715;BME280;49858;48.956;9.076;2023-06-10T06:17:57;98482.31;;;21.73;100.00
63715;BME280;49858;48.956;9.076;2023-06-10T06:20:25;98478.72;;;21.56;100.00
63715;BME280;49858;48.956;9.076;2023-06-10T06:22:52;98475.91;;;22.05;100.00
63715;BME280;49858;48.956;9.076;2023-06-10T06:25:20;98487.91;;;21.89;100.00
63715;BME280;49858;48.956;9.076;2023-06-10T06:27:48;98478.63;;;21.76;100.00
63715;BME280;49858;48.956;9.076;2023-06-10T06:30:17;98483.97;;;22.03;100.00
63715;BME280;49858;48.956;9.076;2023-06-10T06:32:44;98484.84;;;21.83;100.00
63715;BME280;49858;48.956;9.076;2023-06-10T06:35:12;98485.63;;;21.67;100.00
63715;BME280;49858;48.956;9.076;2023-06-10T06:37:40;98479.34;;;22.12;100.00
63715;BME280;49858;48.956;9.076;2023-06-10T06:40:18;98488.34;;;22.04;100.00
63715;BME280;49858;48.956;9.076;2023-06-10T06:42:46;98489.84;;;21.76;100.00
63715;BME280;49858;48.956;9.076;2023-06-10T06:45:50;98490.38;;;22.49;100.00
63715;BME280;49858;48.956;9.076;2023-06-10T06:48:18;98491.69;;;22.60;100.00
63715;BME280;49858;48.956;9.076;2023-06-10T06:50:46;98494.13;;;22.58;100.00
63715;BME280;49858;48.956;9.076;2023-06-10T06:53:13;98485.91;;;22.80;100.00
63715;BME280;49858;48.956;9.076;2023-06-10T06:55:41;98489.06;;;23.11;100.00
63715;BME280;49858;48.956;9.076;2023-06-10T06:58:09;98485.06;;;23.63;100.00
63715;BME280;49858;48.956;9.076;2023-06-10T07:00:36;98482.41;;;23.73;100.00
63715;BME280;49858;48.956;9.076;2023-06-10T07:03:05;98486.63;;;23.90;100.00
63715;BME280;49858;48.956;9.076;2023-06-10T07:05:33;98487.56;;;24.47;100.00
63715;BME280;49858;48.956;9.076;2023-06-10T07:08:01;98488.19;;;24.51;100.00
63715;BME280;49858;48.956;9.076;2023-06-10T07:10:29;98489.06;;;24.61;100.00
63715;BME280;49858;48.956;9.076;2023-06-10T07:12:56;98492.88;;;24.19;100.00
63715;BME280;49858;48.956;9.076;2023-06-10T07:15:24;98486.50;;;24.97;100.00
63715;BME280;49858;48.956;9.076;2023-06-10T07:17:52;98481.56;;;24.45;100.00
63715;BME280;49858;48.956;9.076;2023-06-10T07:20:21;98488.22;;;24.73;100.00
63715;BME280;49858;48.956;9.076;2023-06-10T07:22:48;98496.03;;;24.09;100.00
63715;BME280;49858;48.956;9.076;2023-06-10T07:25:16;98489.25;;;24.88;100.00
63715;BME280;49858;48.956;9.076;2023-06-10T07:27:44;98490.53;;;25.09;100.00
63715;BME280;49858;48.956;9.076;2023-06-10T07:30:12;98495.69;;;25.73;100.00
63715;BME280;49858;48.956;9.076;2023-06-10T07:32:39;98485.09;;;25.46;100.00
63715;BME280;49858;48.956;9.076;2023-06-10T07:35:08;98490.25;;;25.47;100.00
63715;BME280;49858;48.956;9.076;2023-06-10T07:37:38;98490.94;;;25.61;100.00
63715;BME280;49858;48.956;9.076;2023-06-10T07:40:06;98481.88;;;24.82;100.00
63715;BME280;49858;48.956;9.076;2023-06-10T07:42:34;98482.16;;;25.18;100.00
63715;BME280;49858;48.956;9.076;2023-06-10T07:45:02;98475.34;;;24.85;100.00
63715;BME280;49858;48.956;9.076;2023-06-10T07:47:30;98478.59;;;25.67;100.00
63715;BME280;49858;48.956;9.076;2023-06-10T07:49:58;98493.19;;;26.34;100.00
63715;BME280;49858;48.956;9.076;2023-06-10T07:52:25;98487.34;;;26.10;100.00
63715;BME280;49858;48.956;9.076;2023-06-10T07:54:56;98482.28;;;26.72;95.18
63715;BME280;49858;48.956;9.076;2023-06-10T07:57:24;98493.22;;;26.89;92.30
63715;BME280;49858;48.956;9.076;2023-06-10T07:59:51;98473.69;;;27.37;90.86
63715;BME280;49858;48.956;9.076;2023-06-10T08:02:21;98476.59;;;26.27;97.88
63715;BME280;49858;48.956;9.076;2023-06-10T08:04:51;98478.97;;;26.83;93.88
63715;BME280;49858;48.956;9.076;2023-06-10T08:07:19;98478.44;;;26.11;99.37
63715;BME280;49858;48.956;9.076;2023-06-10T08:09:46;98480.75;;;27.41;91.90
63715;BME280;49858;48.956;9.076;2023-06-10T08:12:15;98470.47;;;27.71;89.45
63715;BME280;49858;48.956;9.076;2023-06-10T08:14:44;98465.66;;;26.47;93.88
63715;BME280;49858;48.956;9.076;2023-06-10T08:17:12;98466.66;;;27.23;95.85
63715;BME280;49858;48.956;9.076;2023-06-10T08:19:39;98460.47;;;27.43;92.50
63715;BME280;49858;48.956;9.076;2023-06-10T08:22:07;98468.22;;;27.75;90.72
63715;BME280;49858;48.956;9.076;2023-06-10T08:24:35;98465.84;;;27.83;90.55
63715;BME280;49858;48.956;9.076;2023-06-10T08:27:03;98460.91;;;27.93;86.82
63715;BME280;49858;48.956;9.076;2023-06-10T08:29:32;98467.50;;;27.90;89.51
63715;BME280;49858;48.956;9.076;2023-06-10T08:32:00;98460.72;;;28.20;87.54
63715;BME280;49858;48.956;9.076;2023-06-10T08:34:28;98465.16;;;28.60;85.95
63715;BME280;49858;48.956;9.076;2023-06-10T08:36:55;98465.69;;;28.35;88.56
63715;BME280;49858;48.956;9.076;2023-06-10T08:39:23;98465.69;;;28.35;90.98
63715;BME280;49858;48.956;9.076;2023-06-10T08:41:51;98462.78;;;29.42;81.43
63715;BME280;49858;48.956;9.076;2023-06-10T08:44:26;98462.84;;;30.33;74.81
63715;BME280;49858;48.956;9.076;2023-06-10T08:46:57;98456.53;;;29.38;78.50
63715;BME280;49858;48.956;9.076;2023-06-10T08:49:26;98462.13;;;29.17;77.72
63715;BME280;49858;48.956;9.076;2023-06-10T08:51:55;98454.09;;;29.31;76.27
63715;BME280;49858;48.956;9.076;2023-06-10T08:54:26;98453.19;;;29.54;77.58
63715;BME280;49858;48.956;9.076;2023-06-10T08:56:55;98451.09;;;30.40;75.48
63715;BME280;49858;48.956;9.076;2023-06-10T08:59:24;98454.66;;;28.75;79.62
63715;BME280;49858;48.956;9.076;2023-06-10T09:01:52;98449.44;;;28.59;79.17
63715;BME280;49858;48.956;9.076;2023-06-10T09:04:22;98455.97;;;28.50;81.70
63715;BME280;49858;48.956;9.076;2023-06-10T09:06:51;98449.91;;;29.26;75.13
63715;BME280;49858;48.956;9.076;2023-06-10T09:09:19;98454.41;;;28.49;77.39
63715;BME280;49858;48.956;9.076;2023-06-10T09:11:47;98445.03;;;28.43;79.95
63715;BME280;49858;48.956;9.076;2023-06-10T09:14:15;98452.66;;;28.52;80.04
63715;BME280;49858;48.956;9.076;2023-06-10T09:16:43;98456.41;;;28.34;81.84
63715;BME280;49858;48.956;9.076;2023-06-10T09:19:12;98442.50;;;28.21;80.82
63715;BME280;49858;48.956;9.076;2023-06-10T09:21:42;98439.06;;;29.24;75.55
63715;BME280;49858;48.956;9.076;2023-06-10T09:24:09;98441.69;;;29.93;72.83
63715;BME280;49858;48.956;9.076;2023-06-10T09:26:37;98442.34;;;30.90;72.06
63715;BME280;49858;48.956;9.076;2023-06-10T09:29:06;98441.28;;;30.20;71.39
63715;BME280;49858;48.956;9.076;2023-06-10T09:31:35;98436.25;;;29.74;70.63
63715;BME280;49858;48.956;9.076;2023-06-10T09:34:07;98436.91;;;29.19;76.70
63715;BME280;49858;48.956;9.076;2023-06-10T09:36:35;98440.78;;;29.51;77.67
63715;BME280;49858;48.956;9.076;2023-06-10T09:39:05;98438.06;;;28.83;79.78
63715;BME280;49858;48.956;9.076;2023-06-10T09:41:34;98442.00;;;30.15;74.50
63715;BME280;49858;48.956;9.076;2023-06-10T09:44:02;98440.72;;;31.09;67.12
63715;BME280;49858;48.956;9.076;2023-06-10T09:46:36;98443.50;;;30.31;65.76
63715;BME280;49858;48.956;9.076;2023-06-10T09:49:04;98437.13;;;29.81;70.54
63715;BME280;49858;48.956;9.076;2023-06-10T09:51:32;98437.38;;;29.62;72.17
63715;BME280;49858;48.956;9.076;2023-06-10T09:54:02;98432.97;;;29.61;73.21
63715;BME280;49858;48.956;9.076;2023-06-10T09:56:34;98439.84;;;30.71;67.62
63715;BME280;49858;48.956;9.076;2023-06-10T09:59:02;98437.56;;;30.55;69.28
63715;BME280;49858;48.956;9.076;2023-06-10T10:01:32;98437.72;;;30.46;67.19
63715;BME280;49858;48.956;9.076;2023-06-10T10:04:00;98432.47;;;31.80;61.58
63715;BME280;49858;48.956;9.076;2023-06-10T10:06:30;98421.84;;;32.18;57.46
63715;BME280;49858;48.956;9.076;2023-06-10T10:08:57;98420.19;;;32.54;55.33
63715;BME280;49858;48.956;9.076;2023-06-10T10:11:25;98421.38;;;32.30;58.29
63715;BME280;49858;48.956;9.076;2023-06-10T10:13:55;98412.81;;;32.19;54.04
63715;BME280;49858;48.956;9.076;2023-06-10T10:16:25;98411.78;;;33.04;52.41
63715;BME280;49858;48.956;9.076;2023-06-10T10:18:55;98414.06;;;33.73;45.75
63715;BME280;49858;48.956;9.076;2023-06-10T10:21:26;98408.78;;;32.48;50.07
63715;BME280;49858;48.956;9.076;2023-06-10T10:23:57;98409.16;;;33.12;48.55
63715;BME280;49858;48.956;9.076;2023-06-10T10:26:28;98404.94;;;32.68;50.15
63715;BME280;49858;48.956;9.076;2023-06-10T10:29:01;98414.63;;;33.32;53.21
63715;BME280;49858;48.956;9.076;2023-06-10T10:31:32;98398.53;;;33.29;50.20
63715;BME280;49858;48.956;9.076;2023-06-10T10:34:02;98405.00;;;34.44;41.82
63715;BME280;49858;48.956;9.076;2023-06-10T10:36:32;98400.78;;;33.87;42.76
63715;BME280;49858;48.956;9.076;2023-06-10T10:39:00;98403.16;;;33.77;45.92
63715;BME280;49858;48.956;9.076;2023-06-10T10:41:29;98403.28;;;34.24;43.15
63715;BME280;49858;48.956;9.076;2023-06-10T10:43:57;98400.47;;;34.13;45.38
63715;BME280;49858;48.956;9.076;2023-06-10T10:46:28;98399.31;;;33.41;45.66
63715;BME280;49858;48.956;9.076;2023-06-10T10:48:58;98401.25;;;34.66;39.08
63715;BME280;49858;48.956;9.076;2023-06-10T10:51:33;98410.53;;;32.29;47.42
63715;BME280;49858;48.956;9.076;2023-06-10T10:54:11;98396.41;;;32.68;44.93
63715;BME280;49858;48.956;9.076;2023-06-10T10:56:39;98397.78;;;33.23;43.03
63715;BME280;49858;48.956;9.076;2023-06-10T10:59:07;98389.16;;;33.79;40.78
63715;BME280;49858;48.956;9.076;2023-06-10T11:01:43;98390.31;;;34.23;41.22
63715;BME280;49858;48.956;9.076;2023-06-10T11:04:13;98395.97;;;34.81;43.28
63715;BME280;49858;48.956;9.076;2023-06-10T11:06:44;98389.25;;;33.46;42.25
63715;BME280;49858;48.956;9.076;2023-06-10T11:09:24;98388.44;;;32.13;47.75
63715;BME280;49858;48.956;9.076;2023-06-10T11:11:52;98397.00;;;32.13;45.94
63715;BME280;49858;48.956;9.076;2023-06-10T11:14:25;98389.81;;;31.37;53.00
63715;BME280;49858;48.956;9.076;2023-06-10T11:16:57;98385.81;;;31.55;51.48
63715;BME280;49858;48.956;9.076;2023-06-10T11:19:31;98380.81;;;31.81;47.58
63715;BME280;49858;48.956;9.076;2023-06-10T11:22:00;98385.91;;;32.26;46.81
63715;BME280;49858;48.956;9.076;2023-06-10T11:24:28;98391.41;;;31.12;50.45
63715;BME280;49858;48.956;9.076;2023-06-10T11:29:39;98380.34;;;33.72;44.93
63715;BME280;49858;48.956;9.076;2023-06-10T11:32:08;98378.22;;;34.00;42.88
63715;BME280;49858;48.956;9.076;2023-06-10T11:34:36;98382.34;;;34.99;36.61
63715;BME280;49858;48.956;9.076;2023-06-10T11:37:04;98374.59;;;36.03;33.34
63715;BME280;49858;48.956;9.076;2023-06-10T11:39:32;98368.03;;;36.65;33.80
63715;BME280;49858;48.956;9.076;2023-06-10T11:41:59;98359.13;;;36.12;33.55
63715;BME280;49858;48.956;9.076;2023-06-10T11:44:27;98361.59;;;36.77;32.11
63715;BME280;49858;48.956;9.076;2023-06-10T11:46:55;98358.88;;;37.04;29.98
63715;BME280;49858;48.956;9.076;2023-06-10T11:49:25;98359.41;;;37.48;29.73
63715;BME280;49858;48.956;9.076;2023-06-10T11:51:52;98359.75;;;36.99;29.18
63715;BME280;49858;48.956;9.076;2023-06-10T11:54:20;98366.75;;;35.00;34.85
63715;BME280;49858;48.956;9.076;2023-06-10T11:56:48;98363.25;;;34.36;39.93
63715;BME280;49858;48.956;9.076;2023-06-10T11:59:16;98367.47;;;32.92;43.14
63715;BME280;49858;48.956;9.076;2023-06-10T12:01:44;98364.28;;;33.69;41.79
63715;BME280;49858;48.956;9.076;2023-06-10T12:04:13;98368.94;;;34.41;40.19
63715;BME280;49858;48.956;9.076;2023-06-10T12:06:43;98356.34;;;36.81;29.98
63715;BME280;49858;48.956;9.076;2023-06-10T12:09:16;98358.88;;;37.76;30.30
63715;BME280;49858;48.956;9.076;2023-06-10T12:11:52;98355.44;;;38.78;27.16
63715;BME280;49858;48.956;9.076;2023-06-10T12:17:06;98342.03;;;38.80;28.06
63715;BME280;49858;48.956;9.076;2023-06-10T12:19:37;98348.19;;;37.90;29.28
63715;BME280;49858;48.956;9.076;2023-06-10T12:22:10;98351.00;;;38.98;27.59
63715;BME280;49858;48.956;9.076;2023-06-10T12:24:43;98353.09;;;36.15;31.28
63715;BME280;49858;48.956;9.076;2023-06-10T12:27:11;98354.47;;;34.75;34.58
63715;BME280;49858;48.956;9.076;2023-06-10T12:29:39;98351.09;;;36.67;32.66
63715;BME280;49858;48.956;9.076;2023-06-10T12:32:07;98346.28;;;37.79;27.78
63715;BME280;49858;48.956;9.076;2023-06-10T12:34:36;98341.63;;;38.97;26.38
63715;BME280;49858;48.956;9.076;2023-06-10T12:37:10;98337.13;;;38.54;27.83
63715;BME280;49858;48.956;9.076;2023-06-10T12:39:41;98346.88;;;39.06;26.82
63715;BME280;49858;48.956;9.076;2023-06-10T12:42:09;98335.47;;;37.58;27.75
63715;BME280;49858;48.956;9.076;2023-06-10T12:44:38;98338.66;;;37.68;28.01
63715;BME280;49858;48.956;9.076;2023-06-10T12:47:07;98341.56;;;37.09;29.94
63715;BME280;49858;48.956;9.076;2023-06-10T12:49:36;98339.78;;;39.07;27.12
63715;BME280;49858;48.956;9.076;2023-06-10T12:52:05;98335.50;;;39.22;26.01
63715;BME280;49858;48.956;9.076;2023-06-10T12:54:34;98338.69;;;40.32;25.35
63715;BME280;49858;48.956;9.076;2023-06-10T12:57:03;98335.56;;;38.06;27.13
63715;BME280;49858;48.956;9.076;2023-06-10T12:59:31;98335.94;;;36.53;28.29
63715;BME280;49858;48.956;9.076;2023-06-10T13:01:59;98345.50;;;35.74;30.42
63715;BME280;49858;48.956;9.076;2023-06-10T13:04:27;98345.19;;;34.16;34.71
63715;BME280;49858;48.956;9.076;2023-06-10T13:06:54;98335.44;;;33.89;34.71
63715;BME280;49858;48.956;9.076;2023-06-10T13:09:22;98341.03;;;35.30;33.19